sensor_id;sensor_type;location;lat;lon;timestamp;P1;durP1;ratioP1;P2;durP2;ratioP2
85158;SDS011;75525;50.718;10.600;2024-03-02T00:00:26;24.20;;;12.80;;
85158;SDS011;75525;50.718;10.600;2024-03-02T00:01:27;23.17;;;13.07;;
85158;SDS011;75525;50.718;10.600;2024-03-02T00:02:27;21.30;;;12.45;;
85158;SDS011;75525;50.718;10.600;2024-03-02T00:03:28;25.05;;;12.93;;
85158;SDS011;75525;50.718;10.600;2024-03-02T00:04:28;25.77;;;13.25;;
85158;SDS011;75525;50.718;10.600;2024-03-02T00:05:29;26.42;;;13.73;;
85158;SDS011;75525;50.718;10.600;2024-03-02T00:06:29;26.30;;;14.18;;
85158;SDS011;75525;50.718;10.600;2024-03-02T00:07:30;24.95;;;13.35;;
85158;SDS011;75525;50.718;10.600;2024-03-02T00:08:31;21.95;;;11.50;;
85158;SDS011;75525;50.718;10.600;2024-03-02T00:09:32;28.08;;;13.55;;
85158;SDS011;75525;50.718;10.600;2024-03-02T00:11:39;23.73;;;12.30;;
85158;SDS011;75525;50.718;10.600;2024-03-02T00:12:40;23.48;;;12.95;;
85158;SDS011;75525;50.718;10.600;2024-03-02T00:13:41;23.77;;;12.15;;
85158;SDS011;75525;50.718;10.600;2024-03-02T00:14:42;24.27;;;13.30;;
85158;SDS011;75525;50.718;10.600;2024-03-02T00:16:46;30.00;;;14.13;;
85158;SDS011;75525;50.718;10.600;2024-03-02T00:17:47;22.55;;;11.85;;
85158;SDS011;75525;50.718;10.600;2024-03-02T00:18:53;24.48;;;12.07;;
85158;SDS011;75525;50.718;10.600;2024-03-02T00:19:53;22.65;;;12.35;;
85158;SDS011;75525;50.718;10.600;2024-03-02T00:20:54;24.92;;;12.13;;
85158;SDS011;75525;50.718;10.600;2024-03-02T00:21:56;25.40;;;13.27;;
85158;SDS011;75525;50.718;10.600;2024-03-02T00:23:04;19.95;;;11.02;;
85158;SDS011;75525;50.718;10.600;2024-03-02T00:24:17;22.27;;;12.32;;
85158;SDS011;75525;50.718;10.600;2024-03-02T00:25:21;22.75;;;11.93;;
85158;SDS011;75525;50.718;10.600;2024-03-02T00:26:21;21.27;;;11.07;;
85158;SDS011;75525;50.718;10.600;2024-03-02T00:27:22;24.13;;;12.45;;
85158;SDS011;75525;50.718;10.600;2024-03-02T00:28:35;24.35;;;11.57;;
85158;SDS011;75525;50.718;10.600;2024-03-02T00:29:36;23.17;;;11.75;;
85158;SDS011;75525;50.718;10.600;2024-03-02T00:31:57;22.08;;;11.10;;
85158;SDS011;75525;50.718;10.600;2024-03-02T00:32:58;21.98;;;11.82;;
85158;SDS011;75525;50.718;10.600;2024-03-02T00:33:59;20.35;;;10.38;;
85158;SDS011;75525;50.718;10.600;2024-03-02T00:35:05;22.25;;;11.48;;
85158;SDS011;75525;50.718;10.600;2024-03-02T00:36:05;23.10;;;12.02;;
85158;SDS011;75525;50.718;10.600;2024-03-02T00:37:06;26.05;;;14.30;;
85158;SDS011;75525;50.718;10.600;2024-03-02T00:38:08;22.20;;;12.25;;
85158;SDS011;75525;50.718;10.600;2024-03-02T00:39:08;27.25;;;13.10;;
85158;SDS011;75525;50.718;10.600;2024-03-02T00:40:13;24.58;;;13.23;;
85158;SDS011;75525;50.718;10.600;2024-03-02T00:41:27;23.92;;;12.45;;
85158;SDS011;75525;50.718;10.600;2024-03-02T00:42:29;21.50;;;12.07;;
85158;SDS011;75525;50.718;10.600;2024-03-02T00:44:50;24.65;;;10.88;;
85158;SDS011;75525;50.718;10.600;2024-03-02T00:45:50;19.63;;;10.98;;
85158;SDS011;75525;50.718;10.600;2024-03-02T00:46:51;22.02;;;10.82;;
85158;SDS011;75525;50.718;10.600;2024-03-02T00:47:53;21.35;;;10.88;;
85158;SDS011;75525;50.718;10.600;2024-03-02T00:48:56;18.85;;;10.68;;
85158;SDS011;75525;50.718;10.600;2024-03-02T00:49:58;21.13;;;11.38;;
85158;SDS011;75525;50.718;10.600;2024-03-02T00:50:59;25.27;;;13.10;;
85158;SDS011;75525;50.718;10.600;2024-03-02T00:51:59;26.45;;;14.02;;
85158;SDS011;75525;50.718;10.600;2024-03-02T00:53:01;25.33;;;12.70;;
85158;SDS011;75525;50.718;10.600;2024-03-02T00:54:05;21.80;;;11.93;;
85158;SDS011;75525;50.718;10.600;2024-03-02T00:55:09;24.40;;;12.13;;
85158;SDS011;75525;50.718;10.600;2024-03-02T00:56:10;26.60;;;13.25;;
85158;SDS011;75525;50.718;10.600;2024-03-02T00:57:14;24.67;;;13.32;;
85158;SDS011;75525;50.718;10.600;2024-03-02T00:58:15;24.50;;;13.80;;
85158;SDS011;75525;50.718;10.600;2024-03-02T00:59:16;26.25;;;13.05;;
85158;SDS011;75525;50.718;10.600;2024-03-02T01:00:17;24.33;;;13.18;;
85158;SDS011;75525;50.718;10.600;2024-03-02T01:01:18;24.88;;;12.85;;
85158;SDS011;75525;50.718;10.600;2024-03-02T01:02:19;25.70;;;13.60;;
85158;SDS011;75525;50.718;10.600;2024-03-02T01:03:20;23.35;;;13.23;;
85158;SDS011;75525;50.718;10.600;2024-03-02T01:04:20;22.08;;;12.45;;
85158;SDS011;75525;50.718;10.600;2024-03-02T01:05:21;27.38;;;13.93;;
85158;SDS011;75525;50.718;10.600;2024-03-02T01:06:21;25.88;;;13.77;;
85158;SDS011;75525;50.718;10.600;2024-03-02T01:07:22;23.70;;;14.45;;
85158;SDS011;75525;50.718;10.600;2024-03-02T01:08:23;24.92;;;14.32;;
85158;SDS011;75525;50.718;10.600;2024-03-02T01:09:24;24.77;;;12.70;;
85158;SDS011;75525;50.718;10.600;2024-03-02T01:10:24;25.42;;;13.07;;
85158;SDS011;75525;50.718;10.600;2024-03-02T01:11:25;27.73;;;14.32;;
85158;SDS011;75525;50.718;10.600;2024-03-02T01:12:26;24.98;;;13.20;;
85158;SDS011;75525;50.718;10.600;2024-03-02T01:13:26;28.10;;;14.32;;
85158;SDS011;75525;50.718;10.600;2024-03-02T01:14:27;28.42;;;15.15;;
85158;SDS011;75525;50.718;10.600;2024-03-02T01:15:28;25.67;;;13.60;;
85158;SDS011;75525;50.718;10.600;2024-03-02T01:16:28;26.80;;;13.20;;
85158;SDS011;75525;50.718;10.600;2024-03-02T01:17:29;25.90;;;13.75;;
85158;SDS011;75525;50.718;10.600;2024-03-02T01:18:29;27.20;;;13.20;;
85158;SDS011;75525;50.718;10.600;2024-03-02T01:19:30;24.10;;;13.48;;
85158;SDS011;75525;50.718;10.600;2024-03-02T01:20:31;27.65;;;14.38;;
85158;SDS011;75525;50.718;10.600;2024-03-02T01:21:31;23.75;;;13.45;;
85158;SDS011;75525;50.718;10.600;2024-03-02T01:22:32;28.80;;;13.02;;
85158;SDS011;75525;50.718;10.600;2024-03-02T01:23:32;22.48;;;12.60;;
85158;SDS011;75525;50.718;10.600;2024-03-02T01:24:33;28.90;;;14.18;;
85158;SDS011;75525;50.718;10.600;2024-03-02T01:25:34;27.35;;;14.40;;
85158;SDS011;75525;50.718;10.600;2024-03-02T01:26:34;24.88;;;13.18;;
85158;SDS011;75525;50.718;10.600;2024-03-02T01:27:34;27.13;;;14.35;;
85158;SDS011;75525;50.718;10.600;2024-03-02T01:28:35;24.85;;;13.73;;
85158;SDS011;75525;50.718;10.600;2024-03-02T01:29:35;26.70;;;13.70;;
85158;SDS011;75525;50.718;10.600;2024-03-02T01:30:36;25.90;;;13.07;;
85158;SDS011;75525;50.718;10.600;2024-03-02T01:31:36;24.63;;;13.32;;
85158;SDS011;75525;50.718;10.600;2024-03-02T01:32:39;25.00;;;12.90;;
85158;SDS011;75525;50.718;10.600;2024-03-02T01:33:40;23.08;;;12.05;;
85158;SDS011;75525;50.718;10.600;2024-03-02T01:34:40;24.90;;;12.70;;
85158;SDS011;75525;50.718;10.600;2024-03-02T01:35:41;24.35;;;12.77;;
85158;SDS011;75525;50.718;10.600;2024-03-02T01:36:41;25.85;;;13.73;;
85158;SDS011;75525;50.718;10.600;2024-03-02T01:37:42;29.77;;;15.32;;
85158;SDS011;75525;50.718;10.600;2024-03-02T01:38:42;27.98;;;14.68;;
85158;SDS011;75525;50.718;10.600;2024-03-02T01:39:43;31.17;;;14.45;;
85158;SDS011;75525;50.718;10.600;2024-03-02T01:40:43;26.73;;;15.15;;
85158;SDS011;75525;50.718;10.600;2024-03-02T01:41:47;27.33;;;13.77;;
85158;SDS011;75525;50.718;10.600;2024-03-02T01:42:47;26.33;;;13.75;;
85158;SDS011;75525;50.718;10.600;2024-03-02T01:43:47;25.58;;;13.45;;
85158;SDS011;75525;50.718;10.600;2024-03-02T01:44:48;27.50;;;13.75;;
85158;SDS011;75525;50.718;10.600;2024-03-02T01:45:48;27.77;;;13.77;;
85158;SDS011;75525;50.718;10.600;2024-03-02T01:46:49;27.10;;;13.82;;
85158;SDS011;75525;50.718;10.600;2024-03-02T01:47:50;25.02;;;13.20;;
85158;SDS011;75525;50.718;10.600;2024-03-02T01:48:51;25.08;;;13.27;;
85158;SDS011;75525;50.718;10.600;2024-03-02T01:49:52;24.98;;;13.68;;
85158;SDS011;75525;50.718;10.600;2024-03-02T01:50:52;27.30;;;13.95;;
85158;SDS011;75525;50.718;10.600;2024-03-02T01:51:53;23.50;;;13.52;;
85158;SDS011;75525;50.718;10.600;2024-03-02T01:52:53;31.00;;;14.45;;
85158;SDS011;75525;50.718;10.600;2024-03-02T01:53:55;28.30;;;14.70;;
85158;SDS011;75525;50.718;10.600;2024-03-02T01:54:55;26.92;;;14.10;;
85158;SDS011;75525;50.718;10.600;2024-03-02T01:55:56;30.60;;;15.00;;
85158;SDS011;75525;50.718;10.600;2024-03-02T01:56:56;28.08;;;14.10;;
85158;SDS011;75525;50.718;10.600;2024-03-02T01:57:57;27.73;;;13.60;;
85158;SDS011;75525;50.718;10.600;2024-03-02T01:58:58;29.73;;;14.48;;
85158;SDS011;75525;50.718;10.600;2024-03-02T01:59:58;24.48;;;13.45;;
85158;SDS011;75525;50.718;10.600;2024-03-02T02:01:00;26.60;;;14.65;;
85158;SDS011;75525;50.718;10.600;2024-03-02T02:02:00;27.90;;;14.18;;
85158;SDS011;75525;50.718;10.600;2024-03-02T02:03:01;27.08;;;14.73;;
85158;SDS011;75525;50.718;10.600;2024-03-02T02:04:01;27.13;;;13.73;;
85158;SDS011;75525;50.718;10.600;2024-03-02T02:05:02;32.05;;;15.75;;
85158;SDS011;75525;50.718;10.600;2024-03-02T02:06:03;31.35;;;14.18;;
85158;SDS011;75525;50.718;10.600;2024-03-02T02:07:04;29.83;;;14.32;;
85158;SDS011;75525;50.718;10.600;2024-03-02T02:08:04;28.38;;;15.30;;
85158;SDS011;75525;50.718;10.600;2024-03-02T02:09:05;27.00;;;14.57;;
85158;SDS011;75525;50.718;10.600;2024-03-02T02:10:08;29.48;;;15.50;;
85158;SDS011;75525;50.718;10.600;2024-03-02T02:11:10;29.50;;;15.73;;
85158;SDS011;75525;50.718;10.600;2024-03-02T02:12:10;29.00;;;14.93;;
85158;SDS011;75525;50.718;10.600;2024-03-02T02:13:11;28.90;;;16.05;;
85158;SDS011;75525;50.718;10.600;2024-03-02T02:14:11;33.55;;;15.57;;
85158;SDS011;75525;50.718;10.600;2024-03-02T02:15:21;27.25;;;15.20;;
85158;SDS011;75525;50.718;10.600;2024-03-02T02:16:23;32.05;;;16.35;;
85158;SDS011;75525;50.718;10.600;2024-03-02T02:17:23;30.10;;;15.45;;
85158;SDS011;75525;50.718;10.600;2024-03-02T02:18:24;33.17;;;16.58;;
85158;SDS011;75525;50.718;10.600;2024-03-02T02:19:24;36.72;;;16.88;;
85158;SDS011;75525;50.718;10.600;2024-03-02T02:20:25;32.10;;;17.63;;
85158;SDS011;75525;50.718;10.600;2024-03-02T02:21:25;35.88;;;17.38;;
85158;SDS011;75525;50.718;10.600;2024-03-02T02:22:27;32.22;;;17.30;;
85158;SDS011;75525;50.718;10.600;2024-03-02T02:23:27;30.05;;;16.35;;
85158;SDS011;75525;50.718;10.600;2024-03-02T02:24:28;31.35;;;16.17;;
85158;SDS011;75525;50.718;10.600;2024-03-02T02:25:29;33.63;;;17.23;;
85158;SDS011;75525;50.718;10.600;2024-03-02T02:26:29;38.38;;;19.02;;
85158;SDS011;75525;50.718;10.600;2024-03-02T02:27:30;34.65;;;18.98;;
85158;SDS011;75525;50.718;10.600;2024-03-02T02:28:30;33.22;;;16.35;;
85158;SDS011;75525;50.718;10.600;2024-03-02T02:29:31;34.72;;;17.65;;
85158;SDS011;75525;50.718;10.600;2024-03-02T02:30:32;33.38;;;18.08;;
85158;SDS011;75525;50.718;10.600;2024-03-02T02:31:39;32.13;;;17.52;;
85158;SDS011;75525;50.718;10.600;2024-03-02T02:32:40;34.05;;;15.60;;
85158;SDS011;75525;50.718;10.600;2024-03-02T02:33:41;32.80;;;16.85;;
85158;SDS011;75525;50.718;10.600;2024-03-02T02:34:42;37.40;;;18.15;;
85158;SDS011;75525;50.718;10.600;2024-03-02T02:35:42;36.40;;;17.80;;
85158;SDS011;75525;50.718;10.600;2024-03-02T02:36:43;37.38;;;20.42;;
85158;SDS011;75525;50.718;10.600;2024-03-02T02:37:44;33.50;;;17.63;;
85158;SDS011;75525;50.718;10.600;2024-03-02T02:38:46;32.88;;;18.55;;
85158;SDS011;75525;50.718;10.600;2024-03-02T02:39:49;31.65;;;16.95;;
85158;SDS011;75525;50.718;10.600;2024-03-02T02:40:49;32.83;;;17.52;;
85158;SDS011;75525;50.718;10.600;2024-03-02T02:41:49;34.10;;;17.98;;
85158;SDS011;75525;50.718;10.600;2024-03-02T02:42:50;36.38;;;18.30;;
85158;SDS011;75525;50.718;10.600;2024-03-02T02:43:53;30.42;;;17.75;;
85158;SDS011;75525;50.718;10.600;2024-03-02T02:44:54;35.20;;;17.63;;
85158;SDS011;75525;50.718;10.600;2024-03-02T02:45:54;35.38;;;18.20;;
85158;SDS011;75525;50.718;10.600;2024-03-02T02:46:54;39.13;;;18.10;;
85158;SDS011;75525;50.718;10.600;2024-03-02T02:47:55;30.27;;;16.40;;
85158;SDS011;75525;50.718;10.600;2024-03-02T02:48:56;32.63;;;17.20;;
85158;SDS011;75525;50.718;10.600;2024-03-02T02:49:56;33.28;;;17.85;;
85158;SDS011;75525;50.718;10.600;2024-03-02T02:50:57;35.40;;;18.30;;
85158;SDS011;75525;50.718;10.600;2024-03-02T02:51:57;33.35;;;18.10;;
85158;SDS011;75525;50.718;10.600;2024-03-02T02:52:58;35.33;;;18.13;;
85158;SDS011;75525;50.718;10.600;2024-03-02T02:53:58;35.75;;;17.52;;
85158;SDS011;75525;50.718;10.600;2024-03-02T02:54:59;35.17;;;17.30;;
85158;SDS011;75525;50.718;10.600;2024-03-02T02:55:59;35.38;;;18.42;;
85158;SDS011;75525;50.718;10.600;2024-03-02T02:57:00;35.83;;;17.83;;
85158;SDS011;75525;50.718;10.600;2024-03-02T02:58:00;35.65;;;18.67;;
85158;SDS011;75525;50.718;10.600;2024-03-02T02:59:01;32.85;;;18.05;;
85158;SDS011;75525;50.718;10.600;2024-03-02T03:00:11;36.13;;;18.83;;
85158;SDS011;75525;50.718;10.600;2024-03-02T03:01:17;36.05;;;17.92;;
85158;SDS011;75525;50.718;10.600;2024-03-02T03:02:20;37.17;;;18.67;;
85158;SDS011;75525;50.718;10.600;2024-03-02T03:03:21;37.55;;;17.92;;
85158;SDS011;75525;50.718;10.600;2024-03-02T03:04:21;37.40;;;17.55;;
85158;SDS011;75525;50.718;10.600;2024-03-02T03:05:22;38.35;;;19.95;;
85158;SDS011;75525;50.718;10.600;2024-03-02T03:06:22;36.83;;;18.13;;
85158;SDS011;75525;50.718;10.600;2024-03-02T03:07:23;38.25;;;19.23;;
85158;SDS011;75525;50.718;10.600;2024-03-02T03:08:23;40.38;;;18.85;;
85158;SDS011;75525;50.718;10.600;2024-03-02T03:09:24;41.25;;;19.92;;
85158;SDS011;75525;50.718;10.600;2024-03-02T03:10:24;38.00;;;20.17;;
85158;SDS011;75525;50.718;10.600;2024-03-02T03:11:27;36.67;;;19.48;;
85158;SDS011;75525;50.718;10.600;2024-03-02T03:12:27;39.30;;;19.52;;
85158;SDS011;75525;50.718;10.600;2024-03-02T03:13:28;40.40;;;19.63;;
85158;SDS011;75525;50.718;10.600;2024-03-02T03:14:28;39.65;;;20.88;;
85158;SDS011;75525;50.718;10.600;2024-03-02T03:15:28;35.38;;;18.88;;
85158;SDS011;75525;50.718;10.600;2024-03-02T03:16:29;44.53;;;19.50;;
85158;SDS011;75525;50.718;10.600;2024-03-02T03:17:29;37.83;;;18.30;;
85158;SDS011;75525;50.718;10.600;2024-03-02T03:18:30;41.75;;;19.75;;
85158;SDS011;75525;50.718;10.600;2024-03-02T03:19:30;36.85;;;18.35;;
85158;SDS011;75525;50.718;10.600;2024-03-02T03:20:31;37.85;;;19.30;;
85158;SDS011;75525;50.718;10.600;2024-03-02T03:21:31;39.60;;;19.05;;
85158;SDS011;75525;50.718;10.600;2024-03-02T03:22:32;41.92;;;19.48;;
85158;SDS011;75525;50.718;10.600;2024-03-02T03:23:32;38.88;;;19.25;;
85158;SDS011;75525;50.718;10.600;2024-03-02T03:24:32;38.95;;;20.63;;
85158;SDS011;75525;50.718;10.600;2024-03-02T03:25:33;41.85;;;20.20;;
85158;SDS011;75525;50.718;10.600;2024-03-02T03:26:35;35.72;;;18.65;;
85158;SDS011;75525;50.718;10.600;2024-03-02T03:27:36;38.88;;;19.45;;
85158;SDS011;75525;50.718;10.600;2024-03-02T03:28:37;36.70;;;19.98;;
85158;SDS011;75525;50.718;10.600;2024-03-02T03:29:38;38.65;;;19.25;;
85158;SDS011;75525;50.718;10.600;2024-03-02T03:30:39;36.45;;;18.98;;
85158;SDS011;75525;50.718;10.600;2024-03-02T03:31:40;39.55;;;20.27;;
85158;SDS011;75525;50.718;10.600;2024-03-02T03:32:40;40.80;;;18.83;;
85158;SDS011;75525;50.718;10.600;2024-03-02T03:33:41;37.97;;;19.58;;
85158;SDS011;75525;50.718;10.600;2024-03-02T03:34:41;38.38;;;19.08;;
85158;SDS011;75525;50.718;10.600;2024-03-02T03:35:41;35.78;;;19.23;;
85158;SDS011;75525;50.718;10.600;2024-03-02T03:36:42;38.78;;;19.52;;
85158;SDS011;75525;50.718;10.600;2024-03-02T03:37:43;40.55;;;19.90;;
85158;SDS011;75525;50.718;10.600;2024-03-02T03:38:43;39.35;;;19.27;;
85158;SDS011;75525;50.718;10.600;2024-03-02T03:39:44;44.20;;;20.10;;
85158;SDS011;75525;50.718;10.600;2024-03-02T03:40:44;40.78;;;19.77;;
85158;SDS011;75525;50.718;10.600;2024-03-02T03:41:45;37.88;;;18.35;;
85158;SDS011;75525;50.718;10.600;2024-03-02T03:42:45;41.45;;;19.35;;
85158;SDS011;75525;50.718;10.600;2024-03-02T03:43:46;40.15;;;20.95;;
85158;SDS011;75525;50.718;10.600;2024-03-02T03:44:46;43.22;;;20.98;;
85158;SDS011;75525;50.718;10.600;2024-03-02T03:45:46;42.00;;;20.48;;
85158;SDS011;75525;50.718;10.600;2024-03-02T03:46:47;42.42;;;20.30;;
85158;SDS011;75525;50.718;10.600;2024-03-02T03:47:47;40.70;;;19.15;;
85158;SDS011;75525;50.718;10.600;2024-03-02T03:48:48;37.78;;;18.88;;
85158;SDS011;75525;50.718;10.600;2024-03-02T03:49:48;40.35;;;19.77;;
85158;SDS011;75525;50.718;10.600;2024-03-02T03:50:49;42.38;;;19.38;;
85158;SDS011;75525;50.718;10.600;2024-03-02T03:51:49;44.80;;;19.52;;
85158;SDS011;75525;50.718;10.600;2024-03-02T03:52:50;37.28;;;19.45;;
85158;SDS011;75525;50.718;10.600;2024-03-02T03:53:50;38.85;;;18.98;;
85158;SDS011;75525;50.718;10.600;2024-03-02T03:54:50;41.13;;;18.90;;
85158;SDS011;75525;50.718;10.600;2024-03-02T03:55:51;43.55;;;18.17;;
85158;SDS011;75525;50.718;10.600;2024-03-02T03:56:51;36.95;;;18.50;;
85158;SDS011;75525;50.718;10.600;2024-03-02T03:57:52;44.83;;;20.95;;
85158;SDS011;75525;50.718;10.600;2024-03-02T03:58:53;41.97;;;19.45;;
85158;SDS011;75525;50.718;10.600;2024-03-02T03:59:53;37.42;;;18.48;;
85158;SDS011;75525;50.718;10.600;2024-03-02T04:00:54;40.00;;;20.02;;
85158;SDS011;75525;50.718;10.600;2024-03-02T04:01:54;41.15;;;18.67;;
85158;SDS011;75525;50.718;10.600;2024-03-02T04:02:55;39.50;;;19.85;;
85158;SDS011;75525;50.718;10.600;2024-03-02T04:03:56;38.83;;;17.83;;
85158;SDS011;75525;50.718;10.600;2024-03-02T04:04:56;38.15;;;18.33;;
85158;SDS011;75525;50.718;10.600;2024-03-02T04:05:56;36.42;;;17.88;;
85158;SDS011;75525;50.718;10.600;2024-03-02T04:06:57;42.72;;;20.67;;
85158;SDS011;75525;50.718;10.600;2024-03-02T04:07:58;37.78;;;19.02;;
85158;SDS011;75525;50.718;10.600;2024-03-02T04:08:58;37.55;;;19.75;;
85158;SDS011;75525;50.718;10.600;2024-03-02T04:09:59;36.08;;;19.30;;
85158;SDS011;75525;50.718;10.600;2024-03-02T04:10:59;40.50;;;19.52;;
85158;SDS011;75525;50.718;10.600;2024-03-02T04:11:59;41.30;;;19.73;;
85158;SDS011;75525;50.718;10.600;2024-03-02T04:13:00;35.78;;;17.92;;
85158;SDS011;75525;50.718;10.600;2024-03-02T04:14:00;38.88;;;18.38;;
85158;SDS011;75525;50.718;10.600;2024-03-02T04:15:01;30.90;;;15.65;;
85158;SDS011;75525;50.718;10.600;2024-03-02T04:16:06;30.80;;;15.43;;
85158;SDS011;75525;50.718;10.600;2024-03-02T04:17:06;28.33;;;16.27;;
85158;SDS011;75525;50.718;10.600;2024-03-02T04:18:07;36.60;;;16.75;;
85158;SDS011;75525;50.718;10.600;2024-03-02T04:19:07;40.38;;;17.33;;
85158;SDS011;75525;50.718;10.600;2024-03-02T04:20:08;31.85;;;16.13;;
85158;SDS011;75525;50.718;10.600;2024-03-02T04:21:08;31.08;;;15.90;;
85158;SDS011;75525;50.718;10.600;2024-03-02T04:22:09;32.20;;;16.60;;
85158;SDS011;75525;50.718;10.600;2024-03-02T04:23:09;31.95;;;14.80;;
85158;SDS011;75525;50.718;10.600;2024-03-02T04:24:10;31.98;;;14.02;;
85158;SDS011;75525;50.718;10.600;2024-03-02T04:25:10;32.45;;;15.30;;
85158;SDS011;75525;50.718;10.600;2024-03-02T04:26:10;25.65;;;12.43;;
85158;SDS011;75525;50.718;10.600;2024-03-02T04:27:11;28.75;;;13.75;;
85158;SDS011;75525;50.718;10.600;2024-03-02T04:28:12;25.92;;;13.93;;
85158;SDS011;75525;50.718;10.600;2024-03-02T04:29:12;27.52;;;14.13;;
85158;SDS011;75525;50.718;10.600;2024-03-02T04:30:13;30.05;;;14.63;;
85158;SDS011;75525;50.718;10.600;2024-03-02T04:31:14;29.25;;;13.75;;
85158;SDS011;75525;50.718;10.600;2024-03-02T04:32:15;23.23;;;13.23;;
85158;SDS011;75525;50.718;10.600;2024-03-02T04:33:16;29.77;;;14.45;;
85158;SDS011;75525;50.718;10.600;2024-03-02T04:34:16;29.90;;;14.15;;
85158;SDS011;75525;50.718;10.600;2024-03-02T04:35:16;26.48;;;14.18;;
85158;SDS011;75525;50.718;10.600;2024-03-02T04:36:17;24.30;;;13.02;;
85158;SDS011;75525;50.718;10.600;2024-03-02T04:37:17;26.17;;;13.68;;
85158;SDS011;75525;50.718;10.600;2024-03-02T04:38:19;28.67;;;13.88;;
85158;SDS011;75525;50.718;10.600;2024-03-02T04:39:19;28.90;;;14.95;;
85158;SDS011;75525;50.718;10.600;2024-03-02T04:40:20;23.13;;;13.43;;
85158;SDS011;75525;50.718;10.600;2024-03-02T04:41:20;25.55;;;13.15;;
85158;SDS011;75525;50.718;10.600;2024-03-02T04:42:21;30.38;;;14.95;;
85158;SDS011;75525;50.718;10.600;2024-03-02T04:43:22;25.20;;;13.18;;
85158;SDS011;75525;50.718;10.600;2024-03-02T04:44:23;26.33;;;15.27;;
85158;SDS011;75525;50.718;10.600;2024-03-02T04:45:23;27.30;;;13.98;;
85158;SDS011;75525;50.718;10.600;2024-03-02T04:46:23;29.52;;;14.45;;
85158;SDS011;75525;50.718;10.600;2024-03-02T04:47:24;33.60;;;15.43;;
85158;SDS011;75525;50.718;10.600;2024-03-02T04:48:25;29.30;;;15.32;;
85158;SDS011;75525;50.718;10.600;2024-03-02T04:49:25;28.20;;;15.45;;
85158;SDS011;75525;50.718;10.600;2024-03-02T04:50:26;29.65;;;15.63;;
85158;SDS011;75525;50.718;10.600;2024-03-02T04:51:26;32.63;;;16.73;;
85158;SDS011;75525;50.718;10.600;2024-03-02T04:52:27;31.27;;;14.38;;
85158;SDS011;75525;50.718;10.600;2024-03-02T04:53:27;29.77;;;14.27;;
85158;SDS011;75525;50.718;10.600;2024-03-02T04:54:28;27.75;;;15.27;;
85158;SDS011;75525;50.718;10.600;2024-03-02T04:55:28;26.13;;;14.90;;
85158;SDS011;75525;50.718;10.600;2024-03-02T04:56:29;29.98;;;15.10;;
85158;SDS011;75525;50.718;10.600;2024-03-02T04:57:32;29.95;;;14.70;;
85158;SDS011;75525;50.718;10.600;2024-03-02T04:58:32;29.52;;;15.38;;
85158;SDS011;75525;50.718;10.600;2024-03-02T04:59:32;27.15;;;15.13;;
85158;SDS011;75525;50.718;10.600;2024-03-02T05:00:33;25.65;;;13.93;;
85158;SDS011;75525;50.718;10.600;2024-03-02T05:01:34;26.73;;;13.85;;
85158;SDS011;75525;50.718;10.600;2024-03-02T05:02:35;29.42;;;14.65;;
85158;SDS011;75525;50.718;10.600;2024-03-02T05:03:35;29.67;;;14.23;;
85158;SDS011;75525;50.718;10.600;2024-03-02T05:04:35;28.27;;;14.18;;
85158;SDS011;75525;50.718;10.600;2024-03-02T05:05:36;26.00;;;13.85;;
85158;SDS011;75525;50.718;10.600;2024-03-02T05:06:38;29.20;;;15.48;;
85158;SDS011;75525;50.718;10.600;2024-03-02T05:07:42;29.33;;;13.98;;
85158;SDS011;75525;50.718;10.600;2024-03-02T05:08:43;29.70;;;15.48;;
85158;SDS011;75525;50.718;10.600;2024-03-02T05:09:45;29.00;;;15.68;;
85158;SDS011;75525;50.718;10.600;2024-03-02T05:10:45;31.90;;;15.90;;
85158;SDS011;75525;50.718;10.600;2024-03-02T05:11:45;29.58;;;15.57;;
85158;SDS011;75525;50.718;10.600;2024-03-02T05:12:59;34.88;;;16.38;;
85158;SDS011;75525;50.718;10.600;2024-03-02T05:13:59;29.83;;;15.48;;
85158;SDS011;75525;50.718;10.600;2024-03-02T05:15:00;29.38;;;16.38;;
85158;SDS011;75525;50.718;10.600;2024-03-02T05:16:01;31.55;;;16.70;;
85158;SDS011;75525;50.718;10.600;2024-03-02T05:17:01;29.67;;;15.18;;
85158;SDS011;75525;50.718;10.600;2024-03-02T05:18:01;30.85;;;15.93;;
85158;SDS011;75525;50.718;10.600;2024-03-02T05:19:05;33.05;;;16.10;;
85158;SDS011;75525;50.718;10.600;2024-03-02T05:21:09;27.70;;;13.70;;
85158;SDS011;75525;50.718;10.600;2024-03-02T05:22:09;29.27;;;16.13;;
85158;SDS011;75525;50.718;10.600;2024-03-02T05:23:10;33.33;;;16.08;;
85158;SDS011;75525;50.718;10.600;2024-03-02T05:24:11;28.23;;;15.50;;
85158;SDS011;75525;50.718;10.600;2024-03-02T05:25:11;30.65;;;16.35;;
85158;SDS011;75525;50.718;10.600;2024-03-02T05:26:12;31.58;;;15.88;;
85158;SDS011;75525;50.718;10.600;2024-03-02T05:27:15;31.67;;;16.67;;
85158;SDS011;75525;50.718;10.600;2024-03-02T05:28:16;32.42;;;17.65;;
85158;SDS011;75525;50.718;10.600;2024-03-02T05:29:16;30.48;;;16.35;;
85158;SDS011;75525;50.718;10.600;2024-03-02T05:30:17;35.63;;;17.10;;
85158;SDS011;75525;50.718;10.600;2024-03-02T05:31:17;35.83;;;16.80;;
85158;SDS011;75525;50.718;10.600;2024-03-02T05:32:18;30.50;;;16.30;;
85158;SDS011;75525;50.718;10.600;2024-03-02T05:33:18;35.35;;;16.52;;
85158;SDS011;75525;50.718;10.600;2024-03-02T05:34:22;31.00;;;16.17;;
85158;SDS011;75525;50.718;10.600;2024-03-02T05:35:22;29.48;;;15.80;;
85158;SDS011;75525;50.718;10.600;2024-03-02T05:36:23;35.03;;;17.25;;
85158;SDS011;75525;50.718;10.600;2024-03-02T05:37:23;32.33;;;16.50;;
85158;SDS011;75525;50.718;10.600;2024-03-02T05:38:24;34.70;;;16.02;;
85158;SDS011;75525;50.718;10.600;2024-03-02T05:39:24;31.95;;;16.10;;
85158;SDS011;75525;50.718;10.600;2024-03-02T05:40:25;33.45;;;17.00;;
85158;SDS011;75525;50.718;10.600;2024-03-02T05:41:25;34.88;;;17.58;;
85158;SDS011;75525;50.718;10.600;2024-03-02T05:42:26;35.75;;;17.40;;
85158;SDS011;75525;50.718;10.600;2024-03-02T05:43:27;35.10;;;18.88;;
85158;SDS011;75525;50.718;10.600;2024-03-02T05:44:28;33.05;;;16.58;;
85158;SDS011;75525;50.718;10.600;2024-03-02T05:45:29;30.08;;;17.10;;
85158;SDS011;75525;50.718;10.600;2024-03-02T05:46:29;39.00;;;18.33;;
85158;SDS011;75525;50.718;10.600;2024-03-02T05:47:30;35.90;;;17.35;;
85158;SDS011;75525;50.718;10.600;2024-03-02T05:48:30;35.40;;;16.85;;
85158;SDS011;75525;50.718;10.600;2024-03-02T05:49:31;33.97;;;17.50;;
85158;SDS011;75525;50.718;10.600;2024-03-02T05:50:31;33.20;;;18.00;;
85158;SDS011;75525;50.718;10.600;2024-03-02T05:51:31;38.88;;;19.13;;
85158;SDS011;75525;50.718;10.600;2024-03-02T05:52:32;35.95;;;17.77;;
85158;SDS011;75525;50.718;10.600;2024-03-02T05:53:32;32.97;;;17.95;;
85158;SDS011;75525;50.718;10.600;2024-03-02T05:54:33;36.30;;;17.95;;
85158;SDS011;75525;50.718;10.600;2024-03-02T05:55:34;36.10;;;18.60;;
85158;SDS011;75525;50.718;10.600;2024-03-02T05:56:35;36.60;;;17.08;;
85158;SDS011;75525;50.718;10.600;2024-03-02T05:57:35;36.83;;;18.85;;